createdAt,value
2023-05-16T00:00:18.824Z,9.52
2023-05-16T00:02:45.742Z,9.52
2023-05-16T00:05:14.835Z,9.49
2023-05-16T00:07:46.528Z,9.52
2023-05-16T00:10:13.924Z,9.53
2023-05-16T00:12:40.615Z,9.53
2023-05-16T00:15:09.087Z,9.40
2023-05-16T00:17:36.414Z,9.43
2023-05-16T00:20:11.331Z,9.47
2023-05-16T00:22:38.258Z,9.48
2023-05-16T00:25:05.388Z,9.46
2023-05-16T00:27:34.849Z,9.48
2023-05-16T00:30:02.821Z,9.43
2023-05-16T00:32:29.580Z,9.44
2023-05-16T00:34:56.600Z,9.45
2023-05-16T00:37:23.279Z,9.41
2023-05-16T00:39:50.007Z,9.40
2023-05-16T00:42:20.102Z,9.38
2023-05-16T00:44:47.568Z,9.36
2023-05-16T00:47:14.978Z,9.30
2023-05-16T00:49:42.218Z,9.24
2023-05-16T00:52:09.065Z,9.27
2023-05-16T00:54:36.295Z,9.32
2023-05-16T00:57:03.758Z,9.27
2023-05-16T00:59:31.048Z,9.17
2023-05-16T01:01:57.800Z,9.23
2023-05-16T01:04:25.432Z,9.16
2023-05-16T01:06:52.418Z,9.17
2023-05-16T01:09:19.629Z,9.18
2023-05-16T01:11:49.077Z,9.14
2023-05-16T01:14:33.872Z,9.13
2023-05-16T01:17:16.178Z,9.13
2023-05-16T01:20:21.417Z,9.14
2023-05-16T01:23:16.790Z,9.06
2023-05-16T01:25:52.594Z,9.06
2023-05-16T01:28:20.203Z,9.06
2023-05-16T01:30:46.899Z,9.08
2023-05-16T01:33:13.670Z,9.05
2023-05-16T01:35:53.522Z,9.04
2023-05-16T01:38:30.759Z,9.00
2023-05-16T01:41:08.129Z,9.00
2023-05-16T01:43:40.114Z,9.00
2023-05-16T01:46:12.778Z,9.03
2023-05-16T01:48:53.273Z,8.99
2023-05-16T01:51:25.797Z,8.91
2023-05-16T01:53:53.701Z,8.90
2023-05-16T01:56:21.709Z,8.88
2023-05-16T01:58:50.564Z,8.84
2023-05-16T02:01:17.575Z,8.88
2023-05-16T02:03:44.336Z,8.89
2023-05-16T02:06:11.095Z,8.87
2023-05-16T02:08:38.061Z,8.80
2023-05-16T02:11:04.753Z,8.77
2023-05-16T02:13:31.421Z,8.79
2023-05-16T02:15:58.269Z,8.78
2023-05-16T02:18:24.940Z,8.78
2023-05-16T02:20:52.328Z,8.78
2023-05-16T02:23:19.122Z,8.73
2023-05-16T02:25:45.872Z,8.72
2023-05-16T02:28:12.512Z,8.71
2023-05-16T02:30:39.272Z,8.66
2023-05-16T02:33:06.265Z,8.67
2023-05-16T02:35:32.972Z,8.69
2023-05-16T02:37:59.778Z,8.71
2023-05-16T02:40:26.475Z,8.73
2023-05-16T02:42:53.165Z,8.71
2023-05-16T02:45:19.884Z,8.70
2023-05-16T02:47:46.610Z,8.70
2023-05-16T02:50:13.912Z,8.68
2023-05-16T02:52:40.879Z,8.66
2023-05-16T02:57:39.107Z,8.68
2023-05-16T03:00:06.563Z,8.62
2023-05-16T03:02:33.613Z,8.55
2023-05-16T03:05:00.710Z,8.48
2023-05-16T03:07:27.522Z,8.52
2023-05-16T03:09:54.137Z,8.50
2023-05-16T03:12:20.826Z,8.57
2023-05-16T03:14:47.597Z,8.54
2023-05-16T03:17:14.255Z,8.58
2023-05-16T03:19:40.895Z,8.58
2023-05-16T03:22:07.662Z,8.59
2023-05-16T03:24:34.369Z,8.63
2023-05-16T03:27:01.285Z,8.68
2023-05-16T03:29:28.073Z,8.69
2023-05-16T03:31:55.372Z,8.70
2023-05-16T03:34:22.208Z,8.71
2023-05-16T03:36:52.004Z,8.90
2023-05-16T03:39:18.688Z,9.27
2023-05-16T03:41:45.304Z,9.73
2023-05-16T03:44:12.167Z,10.15
2023-05-16T03:46:38.823Z,10.63
2023-05-16T03:49:05.870Z,11.07
2023-05-16T03:51:33.608Z,11.50
2023-05-16T03:54:00.444Z,11.86
2023-05-16T03:56:27.363Z,12.23
2023-05-16T03:58:53.993Z,12.51
2023-05-16T04:01:20.691Z,12.78
2023-05-16T04:03:47.389Z,13.03
2023-05-16T04:06:14.295Z,13.24
2023-05-16T04:08:41.304Z,13.64
2023-05-16T04:11:08.004Z,14.05
2023-05-16T04:13:34.889Z,14.21
2023-05-16T04:16:01.582Z,14.53
2023-05-16T04:18:28.250Z,14.69
2023-05-16T04:20:54.955Z,14.92
2023-05-16T04:23:21.624Z,15.21
2023-05-16T04:25:48.204Z,15.48
2023-05-16T04:28:14.964Z,16.00
2023-05-16T04:30:41.620Z,16.36
2023-05-16T04:33:08.520Z,16.56
2023-05-16T04:35:35.648Z,17.09
2023-05-16T04:38:02.776Z,17.31
2023-05-16T04:40:29.585Z,17.48
2023-05-16T04:42:56.399Z,17.72
2023-05-16T04:45:23.226Z,18.06
2023-05-16T04:47:49.963Z,18.13
2023-05-16T04:50:18.244Z,18.30
2023-05-16T04:52:45.018Z,18.32
2023-05-16T04:55:11.835Z,18.45
2023-05-16T04:57:38.484Z,18.44
2023-05-16T05:00:09.108Z,18.60
2023-05-16T05:02:36.103Z,18.62
2023-05-16T05:05:03.523Z,18.88
2023-05-16T05:07:30.334Z,19.22
2023-05-16T05:09:57.258Z,19.25
2023-05-16T05:12:24.116Z,19.23
2023-05-16T05:14:51.247Z,19.23
2023-05-16T05:17:18.256Z,19.18
2023-05-16T05:19:45.166Z,19.12
2023-05-16T05:22:12.218Z,19.10
2023-05-16T05:24:38.878Z,19.08
2023-05-16T05:27:05.820Z,18.74
2023-05-16T05:29:32.749Z,18.66
2023-05-16T05:31:59.477Z,18.77
2023-05-16T05:34:26.108Z,18.69
2023-05-16T05:36:52.829Z,18.70
2023-05-16T05:39:19.493Z,18.97
2023-05-16T05:41:46.249Z,19.21
2023-05-16T05:44:13.041Z,19.21
2023-05-16T05:46:40.234Z,19.62
2023-05-16T05:49:07.070Z,19.76
2023-05-16T05:51:33.877Z,19.87
2023-05-16T05:54:01.706Z,20.09
2023-05-16T05:56:28.686Z,20.45
2023-05-16T05:58:55.398Z,20.48
2023-05-16T06:01:22.394Z,20.72
2023-05-16T06:03:49.018Z,21.00
2023-05-16T06:06:16.017Z,21.26
2023-05-16T06:08:42.746Z,21.30
2023-05-16T06:11:09.538Z,21.12
2023-05-16T06:13:36.497Z,21.05
2023-05-16T06:16:03.385Z,20.82
2023-05-16T06:18:30.173Z,20.61
2023-05-16T06:20:56.978Z,20.56
2023-05-16T06:23:23.652Z,20.77
2023-05-16T06:25:51.114Z,21.12
2023-05-16T06:28:17.914Z,21.34
2023-05-16T06:30:44.623Z,21.48
2023-05-16T06:33:11.554Z,21.54
2023-05-16T06:35:39.728Z,21.75
2023-05-16T06:38:06.426Z,21.60
2023-05-16T06:40:33.238Z,21.66
2023-05-16T06:43:00.094Z,21.52
2023-05-16T06:45:27.402Z,21.31
2023-05-16T06:47:55.948Z,21.39
2023-05-16T06:50:24.223Z,21.49
2023-05-16T06:52:51.035Z,21.54
2023-05-16T06:55:17.722Z,21.74
2023-05-16T06:57:44.661Z,21.69
2023-05-16T07:00:12.082Z,21.14
2023-05-16T07:02:39.067Z,20.54
2023-05-16T07:05:07.336Z,20.43
2023-05-16T07:07:34.058Z,20.65
2023-05-16T07:10:01.020Z,20.74
2023-05-16T07:12:28.021Z,20.91
2023-05-16T07:14:54.879Z,21.22
2023-05-16T07:17:21.600Z,21.31
2023-05-16T07:19:50.096Z,21.39
2023-05-16T07:22:16.860Z,21.54
2023-05-16T07:24:43.672Z,21.55
2023-05-16T07:27:10.953Z,21.68
2023-05-16T07:29:41.145Z,21.74
2023-05-16T07:32:08.271Z,21.83
2023-05-16T07:34:35.199Z,21.83
2023-05-16T07:37:01.891Z,21.55
2023-05-16T07:39:28.646Z,21.47
2023-05-16T07:41:55.792Z,21.32
2023-05-16T07:44:22.726Z,21.39
2023-05-16T07:46:49.457Z,21.26
2023-05-16T07:49:17.285Z,21.15
2023-05-16T07:51:43.984Z,21.16
2023-05-16T07:54:10.795Z,21.23
2023-05-16T07:56:38.703Z,21.34
2023-05-16T07:59:07.149Z,21.41
2023-05-16T08:01:34.371Z,21.44
2023-05-16T08:04:01.170Z,21.49
2023-05-16T08:06:27.966Z,21.54
2023-05-16T08:08:55.192Z,21.60
2023-05-16T08:11:22.717Z,21.17
2023-05-16T08:13:50.492Z,20.88
2023-05-16T08:16:17.802Z,20.89
2023-05-16T08:18:44.649Z,20.83
2023-05-16T08:21:11.648Z,20.62
2023-05-16T08:23:38.383Z,19.99
2023-05-16T08:26:05.458Z,19.78
2023-05-16T08:28:32.465Z,19.67
2023-05-16T08:30:59.493Z,19.80
2023-05-16T08:33:26.250Z,20.33
2023-05-16T08:35:53.659Z,20.30
2023-05-16T08:38:20.923Z,20.15
2023-05-16T08:40:47.732Z,20.01
2023-05-16T08:43:14.933Z,20.08
2023-05-16T08:45:44.396Z,20.22
2023-05-16T08:48:12.211Z,20.35
2023-05-16T08:50:39.128Z,20.19
2023-05-16T08:53:08.428Z,19.88
2023-05-16T08:55:36.840Z,19.88
2023-05-16T08:58:04.423Z,20.14
2023-05-16T09:00:31.920Z,20.48
2023-05-16T09:02:59.465Z,20.50
2023-05-16T09:05:28.406Z,20.43
2023-05-16T09:07:56.407Z,20.26
2023-05-16T09:10:24.683Z,20.23
2023-05-16T09:12:51.392Z,20.20
2023-05-16T09:15:20.261Z,20.21
2023-05-16T09:17:48.731Z,19.91
2023-05-16T09:20:19.093Z,19.78
2023-05-16T09:23:01.465Z,19.97
2023-05-16T09:25:32.065Z,19.78
2023-05-16T09:28:02.889Z,19.63
2023-05-16T09:30:32.517Z,19.99
2023-05-16T09:32:59.798Z,20.05
2023-05-16T09:37:56.998Z,19.84
2023-05-16T09:40:24.483Z,19.77
2023-05-16T09:43:05.910Z,20.03
2023-05-16T09:45:35.016Z,19.81
2023-05-16T09:48:06.968Z,19.45
2023-05-16T09:50:35.216Z,19.28
2023-05-16T09:53:02.622Z,19.12
2023-05-16T09:55:31.501Z,19.39
2023-05-16T09:57:58.394Z,19.73
2023-05-16T10:00:32.639Z,20.13
2023-05-16T10:03:04.338Z,20.30
2023-05-16T10:05:32.546Z,19.99
2023-05-16T10:07:59.232Z,19.81
2023-05-16T10:10:27.556Z,19.57
2023-05-16T10:12:59.214Z,19.56
2023-05-16T10:15:27.736Z,19.12
2023-05-16T10:17:57.833Z,18.80
2023-05-16T10:20:26.562Z,18.63
2023-05-16T10:22:56.166Z,18.66
2023-05-16T10:25:23.005Z,18.71
2023-05-16T10:27:51.232Z,19.13
2023-05-16T10:30:19.563Z,19.33
2023-05-16T10:32:46.960Z,19.53
2023-05-16T10:35:14.757Z,19.50
2023-05-16T10:37:42.602Z,19.42
2023-05-16T10:40:10.378Z,19.52
2023-05-16T10:42:37.176Z,19.18
2023-05-16T10:45:17.336Z,19.02
2023-05-16T10:47:57.079Z,19.06
2023-05-16T10:50:34.071Z,19.12
2023-05-16T10:53:23.928Z,19.01
2023-05-16T10:56:06.933Z,19.07
2023-05-16T10:58:33.615Z,19.07
2023-05-16T11:01:22.770Z,19.00
2023-05-16T11:03:58.713Z,19.11
2023-05-16T11:06:26.553Z,19.19
2023-05-16T11:09:11.449Z,19.09
2023-05-16T11:11:49.328Z,19.12
2023-05-16T11:14:24.019Z,19.03
2023-05-16T11:16:52.906Z,18.86
2023-05-16T11:19:43.769Z,18.98
2023-05-16T11:22:19.674Z,18.95
2023-05-16T11:24:59.342Z,18.89
2023-05-16T11:27:34.423Z,18.85
2023-05-16T11:30:03.565Z,18.78
2023-05-16T11:32:31.449Z,18.84
2023-05-16T11:34:58.889Z,18.83
2023-05-16T11:37:25.923Z,18.76
2023-05-16T11:39:52.727Z,18.68
2023-05-16T11:42:19.829Z,18.78
2023-05-16T11:44:46.866Z,18.61
2023-05-16T11:47:13.818Z,18.51
2023-05-16T11:49:41.768Z,18.42
2023-05-16T11:52:09.889Z,18.44
2023-05-16T11:54:37.023Z,18.44
2023-05-16T11:57:03.958Z,18.58
2023-05-16T11:59:31.314Z,18.72
2023-05-16T12:01:58.162Z,18.91
2023-05-16T12:04:28.525Z,18.91
2023-05-16T12:07:00.897Z,18.74
2023-05-16T12:09:27.677Z,18.66
2023-05-16T12:11:54.607Z,18.64
2023-05-16T12:14:21.646Z,18.70
2023-05-16T12:16:49.603Z,18.63
2023-05-16T12:19:17.074Z,18.69
2023-05-16T12:21:44.002Z,18.56
2023-05-16T12:24:13.046Z,18.41
2023-05-16T12:26:41.478Z,18.42
2023-05-16T12:29:08.310Z,18.46
2023-05-16T12:31:40.914Z,18.45
2023-05-16T12:34:18.557Z,18.36
2023-05-16T12:36:45.581Z,18.45
2023-05-16T12:39:14.159Z,18.37
2023-05-16T12:41:43.415Z,18.24
2023-05-16T12:44:17.997Z,18.41
2023-05-16T12:46:46.869Z,18.57
2023-05-16T12:49:14.656Z,18.51
2023-05-16T12:51:41.953Z,18.33
2023-05-16T12:54:11.935Z,18.16
2023-05-16T12:56:40.861Z,18.13
2023-05-16T12:59:08.585Z,18.07
2023-05-16T13:01:38.711Z,18.20
2023-05-16T13:04:06.147Z,18.26
2023-05-16T13:06:48.901Z,18.21
2023-05-16T13:09:20.038Z,18.10
2023-05-16T13:11:46.780Z,18.06
2023-05-16T13:14:13.567Z,18.05
2023-05-16T13:16:40.406Z,18.01
2023-05-16T13:19:08.153Z,17.97
2023-05-16T13:21:34.903Z,17.90
2023-05-16T13:24:01.723Z,17.92
2023-05-16T13:26:28.460Z,17.89
2023-05-16T13:28:55.672Z,17.86
2023-05-16T13:31:22.822Z,17.82
2023-05-16T13:33:49.610Z,17.83
2023-05-16T13:36:16.726Z,17.72
2023-05-16T13:38:43.558Z,17.67
2023-05-16T13:41:10.365Z,17.55
2023-05-16T13:43:37.147Z,17.57
2023-05-16T13:46:04.075Z,17.64
2023-05-16T13:48:31.062Z,17.59
2023-05-16T13:50:58.025Z,17.63
2023-05-16T13:53:26.565Z,17.61
2023-05-16T13:55:53.288Z,17.61
2023-05-16T13:58:20.150Z,17.63
2023-05-16T14:00:48.632Z,17.61
2023-05-16T14:03:15.770Z,17.64
2023-05-16T14:05:43.316Z,17.76
2023-05-16T14:08:10.066Z,17.73
2023-05-16T14:10:36.832Z,17.62
2023-05-16T14:13:06.320Z,17.53
2023-05-16T14:15:33.044Z,17.41
2023-05-16T14:18:00.099Z,17.18
2023-05-16T14:20:27.297Z,17.09
2023-05-16T14:22:54.071Z,16.98
2023-05-16T14:25:24.017Z,16.88
2023-05-16T14:27:51.310Z,16.76
2023-05-16T14:30:19.277Z,16.81
2023-05-16T14:32:46.056Z,16.67
2023-05-16T14:35:12.929Z,16.64
2023-05-16T14:37:40.152Z,16.67
2023-05-16T14:40:09.357Z,16.63
2023-05-16T14:42:36.456Z,16.66
2023-05-16T14:45:03.305Z,16.50
2023-05-16T14:47:31.424Z,16.42
2023-05-16T14:49:58.332Z,16.32
2023-05-16T14:52:25.107Z,16.25
2023-05-16T14:54:51.908Z,16.22
2023-05-16T14:57:18.979Z,16.14
2023-05-16T14:59:45.709Z,16.07
2023-05-16T15:02:12.562Z,16.00
2023-05-16T15:04:40.184Z,15.96
2023-05-16T15:07:07.629Z,15.91
2023-05-16T15:09:34.479Z,15.85
2023-05-16T15:12:02.177Z,15.69
2023-05-16T15:14:29.257Z,15.74
2023-05-16T15:16:56.167Z,15.71
2023-05-16T15:19:23.190Z,15.67
2023-05-16T15:21:50.083Z,15.59
2023-05-16T15:24:18.167Z,15.56
2023-05-16T15:26:44.930Z,15.62
2023-05-16T15:29:11.773Z,15.51
2023-05-16T15:31:38.521Z,15.45
2023-05-16T15:34:06.574Z,15.44
2023-05-16T15:36:33.510Z,15.38
2023-05-16T15:39:00.280Z,15.27
2023-05-16T15:43:58.674Z,15.09
2023-05-16T15:46:25.630Z,14.72
2023-05-16T15:48:52.662Z,14.69
2023-05-16T15:51:19.578Z,14.56
2023-05-16T15:53:48.055Z,14.36
2023-05-16T15:56:14.836Z,14.23
2023-05-16T15:58:41.893Z,14.18
2023-05-16T16:01:08.663Z,14.15
2023-05-16T16:03:35.642Z,14.18
2023-05-16T16:06:02.497Z,13.99
2023-05-16T16:08:30.375Z,14.18
2023-05-16T16:10:57.151Z,14.12
2023-05-16T16:13:24.508Z,14.23
2023-05-16T16:15:52.297Z,14.19
2023-05-16T16:18:19.153Z,14.20
2023-05-16T16:20:45.937Z,14.19
2023-05-16T16:23:12.742Z,14.09
2023-05-16T16:25:39.661Z,14.14
2023-05-16T16:28:06.737Z,14.10
2023-05-16T16:30:33.438Z,13.77
2023-05-16T16:33:00.423Z,14.16
2023-05-16T16:35:27.556Z,14.12
2023-05-16T16:40:29.207Z,13.91
2023-05-16T16:42:56.143Z,13.94
2023-05-16T16:45:22.995Z,13.96
2023-05-16T16:47:50.090Z,13.93
2023-05-16T16:50:16.904Z,13.91
2023-05-16T16:52:43.668Z,13.90
2023-05-16T16:55:10.566Z,13.90
2023-05-16T16:57:37.605Z,13.92
2023-05-16T17:00:04.894Z,13.72
2023-05-16T17:02:31.763Z,13.87
2023-05-16T17:04:58.609Z,13.77
2023-05-16T17:07:25.356Z,13.80
2023-05-16T17:09:54.021Z,13.83
2023-05-16T17:12:22.376Z,13.80
2023-05-16T17:14:51.481Z,13.71
2023-05-16T17:17:19.033Z,13.74
2023-05-16T17:19:47.210Z,13.82
2023-05-16T17:22:16.953Z,13.75
2023-05-16T17:24:43.875Z,13.60
2023-05-16T17:27:10.597Z,13.53
2023-05-16T17:29:37.638Z,13.39
2023-05-16T17:32:06.366Z,13.28
2023-05-16T17:34:33.525Z,13.17
2023-05-16T17:37:00.376Z,13.12
2023-05-16T17:39:27.121Z,13.08
2023-05-16T17:41:55.219Z,13.12
2023-05-16T17:44:21.988Z,13.15
2023-05-16T17:46:48.881Z,13.09
2023-05-16T17:49:15.725Z,13.18
2023-05-16T17:52:00.881Z,13.15
2023-05-16T17:54:31.165Z,13.18
2023-05-16T17:56:58.728Z,13.26
2023-05-16T17:59:27.575Z,13.42
2023-05-16T18:01:58.892Z,13.46
2023-05-16T18:04:26.210Z,13.48
2023-05-16T18:06:53.083Z,13.39
2023-05-16T18:09:21.055Z,13.30
2023-05-16T18:11:47.835Z,13.33
2023-05-16T18:14:15.575Z,13.30
2023-05-16T18:16:42.536Z,13.18
2023-05-16T18:19:09.554Z,13.16
2023-05-16T18:21:37.667Z,12.97
2023-05-16T18:24:05.624Z,12.94
2023-05-16T18:26:32.447Z,12.77
2023-05-16T18:28:59.470Z,12.71
2023-05-16T18:31:26.295Z,12.59
2023-05-16T18:33:53.023Z,12.47
2023-05-16T18:36:19.806Z,12.37
2023-05-16T18:38:46.603Z,12.31
2023-05-16T18:41:13.394Z,12.26
2023-05-16T18:43:40.144Z,12.25
2023-05-16T18:46:06.926Z,12.17
2023-05-16T18:48:35.962Z,12.16
2023-05-16T18:51:03.181Z,12.29
2023-05-16T18:53:29.994Z,12.34
2023-05-16T18:55:56.806Z,12.29
2023-05-16T18:58:23.632Z,12.34
2023-05-16T19:00:50.629Z,12.21
2023-05-16T19:03:17.580Z,12.23
2023-05-16T19:05:45.040Z,12.24
2023-05-16T19:08:12.126Z,12.25
2023-05-16T19:10:41.730Z,12.24
2023-05-16T19:13:09.152Z,12.30
2023-05-16T19:15:36.989Z,12.36
2023-05-16T19:18:05.179Z,12.31
2023-05-16T19:20:33.680Z,12.41
2023-05-16T19:23:00.986Z,12.42
2023-05-16T19:25:28.300Z,12.54
2023-05-16T19:27:55.179Z,12.60
2023-05-16T19:30:22.048Z,12.69
2023-05-16T19:32:48.854Z,12.74
2023-05-16T19:35:15.741Z,12.81
2023-05-16T19:37:42.441Z,12.78
2023-05-16T19:40:09.583Z,12.62
2023-05-16T19:42:36.369Z,12.63
2023-05-16T19:45:03.281Z,12.59
2023-05-16T19:47:30.164Z,12.56
2023-05-16T19:49:57.144Z,12.55
2023-05-16T19:52:26.289Z,12.47
2023-05-16T19:54:53.235Z,12.47
2023-05-16T19:57:22.668Z,12.46
2023-05-16T19:59:49.462Z,12.26
2023-05-16T20:02:21.029Z,12.25
2023-05-16T20:04:49.257Z,12.16
2023-05-16T20:07:15.995Z,12.02
2023-05-16T20:09:42.817Z,11.83
2023-05-16T20:12:10.036Z,11.91
2023-05-16T20:14:38.042Z,11.94
2023-05-16T20:17:04.737Z,11.91
2023-05-16T20:19:31.684Z,11.94
2023-05-16T20:21:58.687Z,11.85
2023-05-16T20:24:25.409Z,12.11
2023-05-16T20:26:52.257Z,12.17
2023-05-16T20:29:19.009Z,12.19
2023-05-16T20:31:45.766Z,12.19
2023-05-16T20:34:12.630Z,12.15
2023-05-16T20:36:39.601Z,12.05
2023-05-16T20:39:09.084Z,11.94
2023-05-16T20:41:36.081Z,11.91
2023-05-16T20:44:02.822Z,11.88
2023-05-16T20:46:29.678Z,11.92
2023-05-16T20:48:56.481Z,11.84
2023-05-16T20:51:23.346Z,11.75
2023-05-16T20:53:50.253Z,11.70
2023-05-16T20:56:16.959Z,11.75
2023-05-16T20:58:43.934Z,11.70
2023-05-16T21:01:10.838Z,11.46
2023-05-16T21:03:37.679Z,11.48
2023-05-16T21:06:04.713Z,11.42
2023-05-16T21:08:33.633Z,11.36
2023-05-16T21:11:00.509Z,11.26
2023-05-16T21:13:27.282Z,11.14
2023-05-16T21:15:54.046Z,11.01
2023-05-16T21:18:21.055Z,10.97
2023-05-16T21:20:47.754Z,10.90
2023-05-16T21:23:14.470Z,10.87
2023-05-16T21:25:41.318Z,10.79
2023-05-16T21:28:14.085Z,10.62
2023-05-16T21:30:40.838Z,10.72
2023-05-16T21:33:07.646Z,10.87
2023-05-16T21:35:34.697Z,10.84
2023-05-16T21:38:01.399Z,10.86
2023-05-16T21:40:29.026Z,10.88
2023-05-16T21:42:55.869Z,10.73
2023-05-16T21:45:22.719Z,10.88
2023-05-16T21:47:49.607Z,10.89
2023-05-16T21:50:17.516Z,10.95
2023-05-16T21:52:44.458Z,10.90
2023-05-16T21:55:11.427Z,10.86
2023-05-16T21:57:38.242Z,10.88
2023-05-16T22:00:09.377Z,10.94
2023-05-16T22:02:37.032Z,10.89
2023-05-16T22:05:05.078Z,10.88
2023-05-16T22:07:32.064Z,10.81
2023-05-16T22:09:59.696Z,10.73
2023-05-16T22:12:27.677Z,10.85
2023-05-16T22:14:54.519Z,10.81
2023-05-16T22:17:21.825Z,10.68
2023-05-16T22:19:48.873Z,10.77
2023-05-16T22:22:16.755Z,10.75
2023-05-16T22:24:43.602Z,10.60
2023-05-16T22:27:10.358Z,10.64
2023-05-16T22:29:39.890Z,10.60
2023-05-16T22:32:10.735Z,10.56
2023-05-16T22:34:41.119Z,10.56
2023-05-16T22:37:08.459Z,10.55
2023-05-16T22:39:35.883Z,10.55
2023-05-16T22:42:03.074Z,10.55
2023-05-16T22:44:30.121Z,10.54
2023-05-16T22:46:57.023Z,10.61
2023-05-16T22:49:23.930Z,10.62
2023-05-16T22:51:50.720Z,10.60
2023-05-16T22:54:17.860Z,10.59
2023-05-16T22:56:44.548Z,10.56
2023-05-16T22:59:11.383Z,10.49
2023-05-16T23:01:38.135Z,10.42
2023-05-16T23:04:05.149Z,10.41
2023-05-16T23:06:32.817Z,10.37
2023-05-16T23:09:04.202Z,10.34
2023-05-16T23:11:33.960Z,10.32
2023-05-16T23:14:00.917Z,10.28
2023-05-16T23:16:27.700Z,10.29
2023-05-16T23:18:54.610Z,10.31
2023-05-16T23:21:21.417Z,10.31
2023-05-16T23:23:48.246Z,10.33
2023-05-16T23:26:15.089Z,10.35
2023-05-16T23:28:41.799Z,10.32
2023-05-16T23:31:08.494Z,10.37
2023-05-16T23:33:35.350Z,10.37
2023-05-16T23:36:02.020Z,10.39
2023-05-16T23:38:28.677Z,10.43
2023-05-16T23:40:55.493Z,10.46
2023-05-16T23:43:22.146Z,10.48
2023-05-16T23:45:48.891Z,10.54
2023-05-16T23:48:15.946Z,10.44
2023-05-16T23:50:42.771Z,10.49
2023-05-16T23:53:09.539Z,10.40
2023-05-16T23:55:36.309Z,10.43
2023-05-16T23:58:03.199Z,10.50
